ブラジリア の空港の天気 - METARとTAF

ブラジリア国際空港 ( SBBR / BSB ) - ブラジル ブラジリア
飛行場実況気象(Metar)
観測時間05/25 19:00 BRT (05/25 22:00 UTC)
風向・風速西南西 2m/s
視程10km以上
天気現象
少しの雲 雲底高度 910m
気温22℃
湿度78%
気圧1019hPa
METARSBBR 252200Z 24004KT 9999 FEW030 22/18 Q1019
過去の天気等 Google飛行場航空写真 Wunderground天気予報

過去48時間のMETAR

飛行場予報(TAF)
発表時間: 5/25 12:00 BRT (5/25 15:00 UTC)
予報対象時間: 25日15時 BRT ~ 26日15時 BRT
風向・風速西 3m/s
視程10km以上
全天の8割程度の雲 雲底高度 910m
少しの塔状積雲 雲底高度 1220m
25日16時 BRT ~ 25日17時 BRT に一時的に
天気現象
全天の8割程度の雲 雲底高度 910m
少しの積乱雲 雲底高度 1220m
25日18時 BRT ~ 25日20時 BRT に徐々に
風向・風速南南西 3m/s
全天の8割程度の雲 雲底高度 760m
25日22時 BRT ~ 25日24時 BRT に徐々に
視程8000m
全天の4割程度の雲 雲底高度 610m
26日6時 BRT から 確率 30% で
視程3000m
天気現象もや
全天の8割程度の雲 雲底高度 270m
26日9時 BRT ~ 26日11時 BRT に徐々に
視程10km以上
全天の4割程度の雲 雲底高度 760m
TAF SBBR 251500Z 2518/2618 26006KT 9999 BKN030 FEW040TCU TX25/2518Z TN14/2608Z
TEMPO 2519/2520 TS BKN030 FEW040CB
BECMG 2521/2523 20005KT BKN025
BECMG 2601/2603 8000 SCT020
PROB30 2609/2611 3000 BR BKN009
BECMG 2612/2614 9999 SCT025 RMK PEP